GSO weather

Piedmont Triad International Airport
Greensboro, North Carolina, United States

Public forecast

Using degrees Fahrenheit for public forecast. Weather courtesy of forecast.io.

METAR (pilot weather report)

Retrieved 2019/05/22 16:54 UTC (10 minutes ago):

KGSO 221654Z 05006KT 10SM OVC028 22/14 A3024 RMK AO2 SLP232 T02170139

TAF (pilot weather forecast)

Retrieved 2019/05/22 12:22 UTC (5 hours ago):

TAF KGSO 221120Z 2212/2312 08006KT P6SM OVC018 FM221600 09005KT P6SM BKN080 FM222100 13005KT P6SM SCT035 FM230200 15003KT P6SM BKN250 FM230500 17004KT P6SM SCT040 FM231100 21005KT P6SM BKN015